Stoneham, Colorado
Current Conditions -  °F | °C
As of 4:35 PM on Friday 19 Dec 2014 (Local Time) from KFMM Reporting Station
Clear Clear  
Wind Chill: 32°   Ceiling: Unl
Heat Index: 32°   Visibility: 10mi
Dew Point: 25°   Wind: 3mph
Humidity: 78%   Direction: 160°SSE
Pressure: 30.02"   Gusts: NA
Location:  40.61°N, 103.67°W
Report Text: KFMM 192335Z AUTO 16003KT 10SM CLR 00/M04 A3002 RMK AO2 T10021037
Loading
Personal Weather Stations






























Interactive Weather Map New forecast layout! Learn more

10-Day Weather Forecast

Advertisements
Track Severe Weather on mobile